createdAt,value
2017-04-21T00:00:47.520Z,1024.27
2017-04-21T00:01:48.678Z,1024.28
2017-04-21T00:02:49.904Z,1024.24
2017-04-21T00:03:51.161Z,1024.28
2017-04-21T00:04:52.405Z,1024.22
2017-04-21T00:05:53.664Z,1024.26
2017-04-21T00:06:54.902Z,1024.24
2017-04-21T00:07:56.129Z,1024.2
2017-04-21T00:08:57.376Z,1024.19
2017-04-21T00:09:58.621Z,1024.21
2017-04-21T00:10:59.883Z,1024.19
2017-04-21T00:12:01.126Z,1024.13
2017-04-21T00:13:02.487Z,1024.1
2017-04-21T00:14:03.759Z,1024.13
2017-04-21T00:15:05.080Z,1024.1
2017-04-21T00:16:06.314Z,1024.1
2017-04-21T00:17:07.535Z,1024.02
2017-04-21T00:18:08.838Z,1024.03
2017-04-21T00:19:10.054Z,1024.03
2017-04-21T00:20:11.328Z,1024.02
2017-04-21T00:21:12.603Z,1024.02
2017-04-21T00:22:13.858Z,1023.97
2017-04-21T00:23:15.099Z,1023.92
2017-04-21T00:24:16.384Z,1023.96
2017-04-21T00:25:17.820Z,1023.91
2017-04-21T00:26:19.075Z,1023.88
2017-04-21T00:27:20.361Z,1023.87
2017-04-21T00:28:21.626Z,1023.91
2017-04-21T00:29:22.869Z,1023.84
2017-04-21T00:30:24.123Z,1023.86
2017-04-21T00:31:25.351Z,1023.8
2017-04-21T00:32:26.769Z,1023.83
2017-04-21T00:33:28.015Z,1023.82
2017-04-21T00:34:29.379Z,1023.85
2017-04-21T00:35:30.626Z,1023.8
2017-04-21T00:36:31.903Z,1023.81
2017-04-21T00:37:33.127Z,1023.79
2017-04-21T00:38:34.504Z,1023.8
2017-04-21T00:39:35.742Z,1023.76
2017-04-21T00:40:37.005Z,1023.77
2017-04-21T00:41:38.243Z,1023.77
2017-04-21T00:42:39.487Z,1023.71
2017-04-21T00:43:40.846Z,1023.77
2017-04-21T00:44:42.069Z,1023.75
2017-04-21T00:45:43.318Z,1023.68
2017-04-21T00:46:44.616Z,1023.72
2017-04-21T00:47:45.828Z,1023.67
2017-04-21T00:48:47.078Z,1023.65
2017-04-21T00:49:48.355Z,1023.64
2017-04-21T00:50:49.611Z,1023.63
2017-04-21T00:51:50.880Z,1023.65
2017-04-21T00:52:52.125Z,1023.61
2017-04-21T00:53:53.365Z,1023.59
2017-04-21T00:54:54.656Z,1023.54
2017-04-21T00:55:55.954Z,1023.58
2017-04-21T00:56:57.197Z,1023.58
2017-04-21T00:57:58.448Z,1023.56
2017-04-21T00:58:59.699Z,1023.56
2017-04-21T01:00:00.950Z,1023.52
2017-04-21T01:01:02.508Z,1023.52
2017-04-21T01:02:03.710Z,1023.5
2017-04-21T01:03:04.954Z,1023.5
2017-04-21T01:04:06.194Z,1023.5
2017-04-21T01:05:07.407Z,1023.51
2017-04-21T01:06:08.650Z,1023.48
2017-04-21T01:07:09.887Z,1023.48
2017-04-21T01:08:11.119Z,1023.46
2017-04-21T01:09:12.357Z,1023.51
2017-04-21T01:10:13.645Z,1023.5
2017-04-21T01:11:14.867Z,1023.53
2017-04-21T01:12:16.146Z,1023.53
2017-04-21T01:13:17.415Z,1023.49
2017-04-21T01:14:18.708Z,1023.48
2017-04-21T01:15:19.960Z,1023.5
2017-04-21T01:16:21.198Z,1023.49
2017-04-21T01:17:22.434Z,1023.5
2017-04-21T01:18:23.653Z,1023.48
2017-04-21T01:19:24.896Z,1023.5
2017-04-21T01:20:26.213Z,1023.5
2017-04-21T01:21:27.458Z,1023.47
2017-04-21T01:22:28.713Z,1023.47
2017-04-21T01:23:29.951Z,1023.44
2017-04-21T01:24:31.189Z,1023.48
2017-04-21T01:25:32.436Z,1023.44
2017-04-21T01:26:33.673Z,1023.45
2017-04-21T01:27:34.938Z,1023.46
2017-04-21T01:28:36.203Z,1023.44
2017-04-21T01:29:37.414Z,1023.48
2017-04-21T01:30:38.643Z,1023.49
2017-04-21T01:31:39.880Z,1023.44
2017-04-21T01:32:41.123Z,1023.44
2017-04-21T01:33:42.360Z,1023.45
2017-04-21T01:34:43.676Z,1023.43
2017-04-21T01:35:44.990Z,1023.43
2017-04-21T01:36:46.229Z,1023.41
2017-04-21T01:37:47.488Z,1023.38
2017-04-21T01:38:48.725Z,1023.38
2017-04-21T01:39:49.978Z,1023.36
2017-04-21T01:40:51.245Z,1023.38
2017-04-21T01:41:52.492Z,1023.35
2017-04-21T01:42:53.828Z,1023.34
2017-04-21T01:43:55.004Z,1023.31
2017-04-21T01:44:56.274Z,1023.36
2017-04-21T01:45:57.488Z,1023.34
2017-04-21T01:46:58.735Z,1023.36
2017-04-21T01:48:00.022Z,1023.28
2017-04-21T01:49:01.252Z,1023.26
2017-04-21T01:50:02.550Z,1023.31
2017-04-21T01:51:03.765Z,1023.27
2017-04-21T01:52:05.004Z,1023.24
2017-04-21T01:53:06.254Z,1023.23
2017-04-21T01:54:07.476Z,1023.24
2017-04-21T01:55:08.782Z,1023.22
2017-04-21T01:56:10.040Z,1023.22
2017-04-21T01:57:11.243Z,1023.23
2017-04-21T01:58:12.485Z,1023.24
2017-04-21T01:59:13.718Z,1023.21
2017-04-21T02:00:15.039Z,1023.23
2017-04-21T02:01:16.320Z,1023.22
2017-04-21T02:02:17.565Z,1023.2
2017-04-21T02:03:18.828Z,1023.18
2017-04-21T02:04:20.041Z,1023.18
2017-04-21T02:05:21.300Z,1023.15
2017-04-21T02:06:22.607Z,1023.18
2017-04-21T02:07:23.845Z,1023.16
2017-04-21T02:08:25.085Z,1023.19
2017-04-21T02:09:26.322Z,1023.15
2017-04-21T02:10:27.582Z,1023.15
2017-04-21T02:11:28.810Z,1023.15
2017-04-21T02:12:30.158Z,1023.14
2017-04-21T02:13:31.390Z,1023.14
2017-04-21T02:14:32.654Z,1023.12
2017-04-21T02:15:33.921Z,1023.12
2017-04-21T02:16:35.192Z,1023.06
2017-04-21T02:17:36.477Z,1023.08
2017-04-21T02:18:37.723Z,1023.05
2017-04-21T02:19:38.953Z,1023.04
2017-04-21T02:20:40.215Z,1023.01
2017-04-21T02:21:41.447Z,1023
2017-04-21T02:22:42.693Z,1023.02
2017-04-21T02:23:43.968Z,1022.98
2017-04-21T02:24:45.212Z,1022.96
2017-04-21T02:25:46.507Z,1022.97
2017-04-21T02:26:47.832Z,1022.96
2017-04-21T02:27:49.068Z,1022.99
2017-04-21T02:28:50.305Z,1022.93
2017-04-21T02:29:51.597Z,1022.98
2017-04-21T02:30:52.816Z,1022.96
2017-04-21T02:31:54.088Z,1022.91
2017-04-21T02:32:55.287Z,1022.91
2017-04-21T02:33:56.555Z,1022.88
2017-04-21T02:34:57.802Z,1022.91
2017-04-21T02:35:59.019Z,1022.88
2017-04-21T02:37:00.280Z,1022.89
2017-04-21T02:38:01.501Z,1022.94
2017-04-21T02:39:02.750Z,1022.92
2017-04-21T02:40:04.069Z,1022.87
2017-04-21T02:41:05.299Z,1022.84
2017-04-21T02:42:06.594Z,1022.85
2017-04-21T02:43:07.798Z,1022.86
2017-04-21T02:44:09.108Z,1022.86
2017-04-21T02:45:10.363Z,1022.85
2017-04-21T02:46:11.595Z,1022.87
2017-04-21T02:47:12.832Z,1022.87
2017-04-21T02:48:14.091Z,1022.85
2017-04-21T02:49:15.330Z,1022.83
2017-04-21T02:50:16.551Z,1022.77
2017-04-21T02:51:17.807Z,1022.8
2017-04-21T02:52:19.078Z,1022.79
2017-04-21T02:53:20.308Z,1022.81
2017-04-21T02:54:21.729Z,1022.79
2017-04-21T02:55:22.979Z,1022.79
2017-04-21T02:56:24.322Z,1022.79
2017-04-21T02:57:25.560Z,1022.78
2017-04-21T02:58:26.832Z,1022.79
2017-04-21T02:59:28.417Z,1022.76
2017-04-21T03:00:29.560Z,1022.76
2017-04-21T03:01:30.790Z,1022.76
2017-04-21T03:02:32.048Z,1022.75
2017-04-21T03:03:33.277Z,1022.76
2017-04-21T03:04:34.581Z,1022.74
2017-04-21T03:05:35.829Z,1022.77
2017-04-21T03:06:37.166Z,1022.76
2017-04-21T03:07:38.585Z,1022.78
2017-04-21T03:08:39.830Z,1022.8
2017-04-21T03:09:41.127Z,1022.75
2017-04-21T03:10:42.405Z,1022.79
2017-04-21T03:11:43.647Z,1022.77
2017-04-21T03:12:44.888Z,1022.76
2017-04-21T03:13:46.275Z,1022.73
2017-04-21T03:14:47.749Z,1022.74
2017-04-21T03:15:48.983Z,1022.73
2017-04-21T03:16:50.238Z,1022.73
2017-04-21T03:17:51.478Z,1022.71
2017-04-21T03:18:52.736Z,1022.71
2017-04-21T03:19:54.107Z,1022.67
2017-04-21T03:20:55.349Z,1022.68
2017-04-21T03:21:56.802Z,1022.64
2017-04-21T03:22:58.446Z,1022.65
2017-04-21T03:23:59.694Z,1022.62
2017-04-21T03:25:01.016Z,1022.61
2017-04-21T03:26:02.276Z,1022.63
2017-04-21T03:27:03.511Z,1022.59
2017-04-21T03:28:04.767Z,1022.63
2017-04-21T03:29:06.210Z,1022.62
2017-04-21T03:30:07.452Z,1022.63
2017-04-21T03:31:08.683Z,1022.59
2017-04-21T03:32:09.911Z,1022.62
2017-04-21T03:33:11.143Z,1022.63
2017-04-21T03:34:12.396Z,1022.62
2017-04-21T03:35:13.615Z,1022.62
2017-04-21T03:36:14.856Z,1022.61
2017-04-21T03:37:16.096Z,1022.6
2017-04-21T03:38:17.329Z,1022.6
2017-04-21T03:39:18.585Z,1022.63
2017-04-21T03:40:19.819Z,1022.57
2017-04-21T03:41:21.052Z,1022.56
2017-04-21T03:42:22.348Z,1022.49
2017-04-21T03:43:23.571Z,1022.51
2017-04-21T03:44:24.931Z,1022.5
2017-04-21T03:45:26.198Z,1022.46
2017-04-21T03:46:27.420Z,1022.47
2017-04-21T03:47:28.657Z,1022.47
2017-04-21T03:48:30.050Z,1022.44
2017-04-21T03:49:31.362Z,1022.48
2017-04-21T03:50:32.755Z,1022.47
2017-04-21T03:51:34.085Z,1022.46
2017-04-21T03:52:35.340Z,1022.42
2017-04-21T03:53:36.564Z,1022.42
2017-04-21T03:54:37.815Z,1022.43
2017-04-21T03:55:39.044Z,1022.41
2017-04-21T03:56:40.320Z,1022.42
2017-04-21T03:57:41.559Z,1022.36
2017-04-21T03:58:42.793Z,1022.42
2017-04-21T03:59:44.135Z,1022.38
2017-04-21T04:00:45.375Z,1022.36
2017-04-21T04:01:46.618Z,1022.35
2017-04-21T04:02:47.902Z,1022.36
2017-04-21T04:03:49.104Z,1022.32
2017-04-21T04:04:50.364Z,1022.31
2017-04-21T04:05:51.573Z,1022.27
2017-04-21T04:06:53.143Z,1022.3
2017-04-21T04:07:54.381Z,1022.3
2017-04-21T04:08:55.617Z,1022.29
2017-04-21T04:09:56.961Z,1022.23
2017-04-21T04:10:58.200Z,1022.25
2017-04-21T04:11:59.533Z,1022.26
2017-04-21T04:13:00.778Z,1022.28
2017-04-21T04:14:02.137Z,1022.28
2017-04-21T04:15:03.380Z,1022.3
2017-04-21T04:16:04.605Z,1022.29
2017-04-21T04:17:05.846Z,1022.3
2017-04-21T04:18:07.098Z,1022.31
2017-04-21T04:19:08.325Z,1022.23
2017-04-21T04:20:09.581Z,1022.22
2017-04-21T04:21:10.810Z,1022.23
2017-04-21T04:22:12.093Z,1022.28
2017-04-21T04:23:13.333Z,1022.25
2017-04-21T04:24:14.579Z,1022.24
2017-04-21T04:25:15.859Z,1022.26
2017-04-21T04:26:17.155Z,1022.27
2017-04-21T04:27:18.384Z,1022.28
2017-04-21T04:28:19.616Z,1022.26
2017-04-21T04:29:20.855Z,1022.25
2017-04-21T04:30:22.105Z,1022.26
2017-04-21T04:31:23.372Z,1022.26
2017-04-21T04:32:24.699Z,1022.23
2017-04-21T04:33:25.975Z,1022.21
2017-04-21T04:34:27.190Z,1022.2
2017-04-21T04:35:28.430Z,1022.23
2017-04-21T04:36:29.668Z,1022.27
2017-04-21T04:37:30.910Z,1022.26
2017-04-21T04:38:32.209Z,1022.34
2017-04-21T04:39:33.454Z,1022.26
2017-04-21T04:40:34.717Z,1022.3
2017-04-21T04:41:36.111Z,1022.29
2017-04-21T04:42:37.324Z,1022.3
2017-04-21T04:43:38.587Z,1022.26
2017-04-21T04:44:40.121Z,1022.23
2017-04-21T04:45:41.252Z,1022.24
2017-04-21T04:46:42.590Z,1022.28
2017-04-21T04:47:43.832Z,1022.3
2017-04-21T04:48:45.073Z,1022.32
2017-04-21T04:49:46.321Z,1022.28
2017-04-21T04:50:47.560Z,1022.29
2017-04-21T04:51:49.107Z,1022.22
2017-04-21T04:52:50.356Z,1022.31
2017-04-21T04:53:51.595Z,1022.25
2017-04-21T04:54:53.127Z,1022.23
2017-04-21T04:55:54.523Z,1022.22
2017-04-21T04:56:55.830Z,1022.23
2017-04-21T04:57:57.044Z,1022.21
2017-04-21T04:58:58.242Z,1022.2
2017-04-21T04:59:59.507Z,1022.19
2017-04-21T05:01:00.798Z,1022.18
2017-04-21T05:02:02.219Z,1022.15
2017-04-21T05:03:03.449Z,1022.15
2017-04-21T05:04:04.719Z,1022.17
2017-04-21T05:05:05.926Z,1022.17
2017-04-21T05:06:07.217Z,1022.2
2017-04-21T05:07:08.514Z,1022.2
2017-04-21T05:08:09.857Z,1022.16
2017-04-21T05:09:11.054Z,1022.14
2017-04-21T05:10:12.301Z,1022.16
2017-04-21T05:11:13.556Z,1022.15
2017-04-21T05:12:14.853Z,1022.14
2017-04-21T05:13:16.109Z,1022.16
2017-04-21T05:14:17.334Z,1022.17
2017-04-21T05:15:18.740Z,1022.17
2017-04-21T05:16:19.992Z,1022.21
2017-04-21T05:17:21.220Z,1022.23
2017-04-21T05:18:22.461Z,1022.23
2017-04-21T05:19:23.717Z,1022.28
2017-04-21T05:20:24.998Z,1022.28
2017-04-21T05:21:26.316Z,1022.26
2017-04-21T05:22:27.552Z,1022.22
2017-04-21T05:23:28.829Z,1022.2
2017-04-21T05:24:30.068Z,1022.21
2017-04-21T05:25:31.339Z,1022.22
2017-04-21T05:26:32.582Z,1022.19
2017-04-21T05:27:33.819Z,1022.17
2017-04-21T05:28:35.056Z,1022.19
2017-04-21T05:29:36.308Z,1022.22
2017-04-21T05:30:37.527Z,1022.21
2017-04-21T05:31:38.842Z,1022.2
2017-04-21T05:32:40.128Z,1022.22
2017-04-21T05:33:41.453Z,1022.23
2017-04-21T05:34:42.696Z,1022.2
2017-04-21T05:35:43.935Z,1022.18
2017-04-21T05:36:45.193Z,1022.21
2017-04-21T05:37:46.533Z,1022.14
2017-04-21T05:38:47.760Z,1022.17
2017-04-21T05:39:48.993Z,1022.16
2017-04-21T05:40:50.244Z,1022.19
2017-04-21T05:41:51.477Z,1022.21
2017-04-21T05:42:52.708Z,1022.13
2017-04-21T05:43:53.948Z,1022.16
2017-04-21T05:44:55.214Z,1022.17
2017-04-21T05:45:56.497Z,1022.19
2017-04-21T05:46:57.776Z,1022.24
2017-04-21T05:47:59.014Z,1022.19
2017-04-21T05:49:00.240Z,1022.22
2017-04-21T05:50:01.483Z,1022.22
2017-04-21T05:51:02.745Z,1022.24
2017-04-21T05:52:04.005Z,1022.24
2017-04-21T05:53:05.257Z,1022.2
2017-04-21T05:54:06.527Z,1022.22
2017-04-21T05:55:07.769Z,1022.17
2017-04-21T05:56:08.999Z,1022.2
2017-04-21T05:57:10.237Z,1022.2
2017-04-21T05:58:11.488Z,1022.16
2017-04-21T05:59:12.737Z,1022.18
2017-04-21T06:00:13.996Z,1022.19
2017-04-21T06:01:15.252Z,1022.2
2017-04-21T06:02:16.473Z,1022.21
2017-04-21T06:03:17.704Z,1022.2
2017-04-21T06:04:18.994Z,1022.16
2017-04-21T06:05:20.261Z,1022.15
2017-04-21T06:06:21.492Z,1022.16
2017-04-21T06:07:22.731Z,1022.19
2017-04-21T06:08:23.956Z,1022.22
2017-04-21T06:09:25.247Z,1022.22
2017-04-21T06:10:26.508Z,1022.16
2017-04-21T06:11:27.727Z,1022.17
2017-04-21T06:12:28.995Z,1022.2
2017-04-21T06:13:30.316Z,1022.15
2017-04-21T06:14:31.556Z,1022.17
2017-04-21T06:15:32.804Z,1022.18
2017-04-21T06:16:34.043Z,1022.16
2017-04-21T06:17:35.361Z,1022.17
2017-04-21T06:18:36.604Z,1022.15
2017-04-21T06:19:37.831Z,1022.13
2017-04-21T06:20:39.073Z,1022.12
2017-04-21T06:21:40.317Z,1022.12
2017-04-21T06:22:41.548Z,1022.16
2017-04-21T06:23:42.827Z,1022.18
2017-04-21T06:24:44.121Z,1022.15
2017-04-21T06:25:45.364Z,1022.08
2017-04-21T06:26:46.606Z,1022.07
2017-04-21T06:27:47.845Z,1022.05
2017-04-21T06:28:49.091Z,1022.03
2017-04-21T06:29:50.356Z,1022.05
2017-04-21T06:30:51.571Z,1022.08
2017-04-21T06:31:52.954Z,1022.08
2017-04-21T06:32:54.247Z,1022.04
2017-04-21T06:33:55.482Z,1022.08
2017-04-21T06:34:56.716Z,1022.1
2017-04-21T06:35:57.961Z,1022.11
2017-04-21T06:36:59.223Z,1022.09
2017-04-21T06:38:00.553Z,1022.12
2017-04-21T06:39:01.828Z,1022.09
2017-04-21T06:40:03.078Z,1022.11
2017-04-21T06:41:04.318Z,1022.07
2017-04-21T06:42:05.639Z,1022.07
2017-04-21T06:43:06.993Z,1022.11
2017-04-21T06:44:08.247Z,1022.11
2017-04-21T06:45:09.473Z,1022.13
2017-04-21T06:46:10.709Z,1022.16
2017-04-21T06:47:11.969Z,1022.13
2017-04-21T06:48:13.198Z,1022.13
2017-04-21T06:49:14.610Z,1022.11
2017-04-21T06:50:15.860Z,1022.11
2017-04-21T06:51:17.088Z,1022.08
2017-04-21T06:52:18.341Z,1022.14
2017-04-21T06:53:19.583Z,1022.08
2017-04-21T06:54:20.882Z,1022.09
2017-04-21T06:55:22.210Z,1022.05
2017-04-21T06:56:23.457Z,1022.05
2017-04-21T06:57:24.741Z,1022.05
2017-04-21T06:58:25.960Z,1022.01
2017-04-21T06:59:27.221Z,1021.99
2017-04-21T07:00:28.587Z,1022.03
2017-04-21T07:01:29.722Z,1022.03
2017-04-21T07:02:31.028Z,1022.01
2017-04-21T07:03:32.287Z,1022.04
2017-04-21T07:04:33.540Z,1022.04
2017-04-21T07:05:34.794Z,1022.05
2017-04-21T07:06:36.035Z,1022.01
2017-04-21T07:07:37.293Z,1021.98
2017-04-21T07:08:38.542Z,1022.05
2017-04-21T07:09:39.823Z,1022
2017-04-21T07:10:41.060Z,1021.99
2017-04-21T07:11:42.358Z,1022.04
2017-04-21T07:12:43.631Z,1022.03
2017-04-21T07:13:44.868Z,1022.01
2017-04-21T07:14:46.103Z,1022.03
2017-04-21T07:15:47.336Z,1022.03
2017-04-21T07:16:48.575Z,1021.99
2017-04-21T07:17:49.807Z,1021.98
2017-04-21T07:18:51.051Z,1022.03
2017-04-21T07:19:52.400Z,1021.98
2017-04-21T07:20:53.577Z,1021.98
2017-04-21T07:21:54.840Z,1021.88
2017-04-21T07:22:56.082Z,1021.9
2017-04-21T07:23:57.322Z,1021.87
2017-04-21T07:24:58.567Z,1021.91
2017-04-21T07:25:59.813Z,1021.91
2017-04-21T07:27:01.052Z,1021.89
2017-04-21T07:28:02.329Z,1021.94
2017-04-21T07:29:03.548Z,1021.94
2017-04-21T07:30:04.786Z,1021.9
2017-04-21T07:31:06.040Z,1021.9
2017-04-21T07:32:07.426Z,1021.88
2017-04-21T07:33:08.791Z,1021.89
2017-04-21T07:34:10.024Z,1021.9
2017-04-21T07:35:11.640Z,1021.86
2017-04-21T07:36:12.772Z,1021.94
2017-04-21T07:37:14.971Z,1021.93
2017-04-21T07:38:16.220Z,1021.93
2017-04-21T07:39:17.470Z,1021.99
2017-04-21T07:40:18.706Z,1021.92
2017-04-21T07:41:19.944Z,1021.96
2017-04-21T07:42:21.194Z,1021.92
2017-04-21T07:43:22.450Z,1021.95
2017-04-21T07:44:23.695Z,1021.89
2017-04-21T07:45:24.944Z,1021.92
2017-04-21T07:46:26.193Z,1021.89
2017-04-21T07:47:27.494Z,1021.89
2017-04-21T07:48:28.715Z,1021.9
2017-04-21T07:49:29.971Z,1021.9
2017-04-21T07:50:31.197Z,1021.91
2017-04-21T07:51:32.500Z,1021.92
2017-04-21T07:52:33.767Z,1021.92
2017-04-21T07:53:35.070Z,1021.94
2017-04-21T07:54:36.417Z,1021.93
2017-04-21T07:55:37.705Z,1021.89
2017-04-21T07:56:38.966Z,1021.89
2017-04-21T07:57:40.286Z,1021.94
2017-04-21T07:58:41.531Z,1021.93
2017-04-21T07:59:42.765Z,1021.93
2017-04-21T08:00:46.033Z,1021.93
2017-04-21T08:01:50.159Z,1021.94
2017-04-21T08:02:51.461Z,1021.94
2017-04-21T08:03:52.729Z,1021.91
2017-04-21T08:04:54.021Z,1021.93
2017-04-21T08:05:55.267Z,1021.98
2017-04-21T08:06:56.512Z,1021.97
2017-04-21T08:07:57.744Z,1021.95
2017-04-21T08:08:58.992Z,1021.97
2017-04-21T08:10:00.250Z,1022
2017-04-21T08:11:01.511Z,1022
2017-04-21T08:12:02.751Z,1022.06
2017-04-21T08:13:04.005Z,1022.03
2017-04-21T08:14:05.283Z,1022
2017-04-21T08:15:06.650Z,1021.98
2017-04-21T08:16:07.889Z,1021.93
2017-04-21T08:17:09.129Z,1021.94
2017-04-21T08:18:10.409Z,1021.95
2017-04-21T08:19:11.679Z,1021.98
2017-04-21T08:20:13.189Z,1022
2017-04-21T08:21:14.431Z,1021.98
2017-04-21T08:22:15.654Z,1022.07
2017-04-21T08:23:16.923Z,1022.48
2017-04-21T08:24:18.164Z,1022.16
2017-04-21T08:25:19.430Z,1022.21
2017-04-21T08:26:20.671Z,1022.22
2017-04-21T08:27:21.909Z,1022.14
2017-04-21T08:28:23.308Z,1022.09
2017-04-21T08:29:24.613Z,1022.44
2017-04-21T08:30:25.861Z,1022.21
2017-04-21T08:31:27.099Z,1022.15
2017-04-21T08:32:28.390Z,1022.24
2017-04-21T08:33:29.727Z,1022.31
2017-04-21T08:34:31.111Z,1022.62
2017-04-21T08:35:32.417Z,1022.03
2017-04-21T08:36:33.683Z,1022.09
2017-04-21T08:37:34.903Z,1022.7
2017-04-21T08:38:36.143Z,1022.23
2017-04-21T08:39:37.431Z,1022.31
2017-04-21T08:40:38.699Z,1022.65
2017-04-21T08:41:39.952Z,1022.83
2017-04-21T08:42:41.191Z,1022.46
2017-04-21T08:43:42.435Z,1022.54
2017-04-21T08:44:43.685Z,1022.74
2017-04-21T08:45:45.066Z,1022.84
2017-04-21T08:46:46.331Z,1022.92
2017-04-21T08:47:47.574Z,1023.1
2017-04-21T08:48:48.827Z,1023.12
2017-04-21T08:49:50.076Z,1022.54
2017-04-21T08:50:51.365Z,1022.68
2017-04-21T08:51:52.699Z,1022.94
2017-04-21T08:52:53.953Z,1022.82
2017-04-21T08:53:55.208Z,1022.25
2017-04-21T08:54:56.461Z,1023.16
2017-04-21T08:55:57.700Z,1023.47
2017-04-21T08:56:58.959Z,1023.39
2017-04-21T08:58:00.274Z,1023.12
2017-04-21T08:59:01.517Z,1023.37
2017-04-21T09:00:02.938Z,1022.31
2017-04-21T09:01:04.193Z,1023.25
2017-04-21T09:02:05.462Z,1023.34
2017-04-21T09:03:06.709Z,1023.16
2017-04-21T09:04:07.955Z,1023.35
2017-04-21T09:05:09.241Z,1023.35
2017-04-21T09:06:10.502Z,1023.33
2017-04-21T09:07:11.761Z,1023.3
2017-04-21T09:08:13.018Z,1023.24
2017-04-21T09:09:14.298Z,1023.24
2017-04-21T09:10:15.565Z,1023.36
2017-04-21T09:11:16.807Z,1023.04
2017-04-21T09:12:18.189Z,1022.97
2017-04-21T09:13:19.451Z,1022.55
2017-04-21T09:14:20.712Z,1022.79
2017-04-21T09:15:22.048Z,1022.65
2017-04-21T09:16:23.313Z,1022.91
2017-04-21T09:17:24.654Z,1022.78
2017-04-21T09:18:26.073Z,1022.84
2017-04-21T09:19:27.329Z,1021.93
2017-04-21T09:20:28.600Z,1021.96
2017-04-21T09:21:29.856Z,1022.14
2017-04-21T09:22:31.119Z,1022.53
2017-04-21T09:23:32.379Z,1022.6
2017-04-21T09:24:33.638Z,1022.59
2017-04-21T09:25:34.915Z,1022.56
2017-04-21T09:26:36.186Z,1022.66
2017-04-21T09:27:37.543Z,1022.73
2017-04-21T09:28:38.816Z,1022.66
2017-04-21T09:29:40.174Z,1022.65
2017-04-21T09:30:43.332Z,1022.64
2017-04-21T09:31:48.467Z,1022.53
2017-04-21T09:32:54.593Z,1022.56
2017-04-21T09:33:59.740Z,1022.48
2017-04-21T09:35:02.999Z,1022.22
2017-04-21T09:36:07.115Z,1021.98
2017-04-21T09:37:08.383Z,1022.07
2017-04-21T09:38:09.722Z,1021.88
2017-04-21T09:39:10.988Z,1022.36
2017-04-21T09:40:12.254Z,1021.76
2017-04-21T09:41:13.483Z,1021.79
2017-04-21T09:42:15.701Z,1021.97
2017-04-21T09:43:17.970Z,1022.01
2017-04-21T09:44:21.160Z,1022.01
2017-04-21T09:45:22.408Z,1021.81
2017-04-21T09:46:23.670Z,1021.98
2017-04-21T09:47:24.938Z,1021.97
2017-04-21T09:48:26.195Z,1022.08
2017-04-21T09:49:27.514Z,1021.98
2017-04-21T09:50:28.789Z,1022.03
2017-04-21T09:51:31.977Z,1021.83
2017-04-21T09:52:36.257Z,1021.59
2017-04-21T09:53:42.426Z,1021.61
2017-04-21T09:54:48.473Z,1021.63
2017-04-21T09:55:54.591Z,1021.53
2017-04-21T09:57:00.659Z,1021.49
2017-04-21T09:58:06.750Z,1021.69
2017-04-21T09:59:12.822Z,1021.53
2017-04-21T10:00:18.897Z,1021.59
2017-04-21T10:01:25.009Z,1021.56
2017-04-21T10:02:31.067Z,1021.6
2017-04-21T10:03:37.258Z,1021.6
2017-04-21T10:04:43.336Z,1021.54
2017-04-21T10:05:49.447Z,1021.58
2017-04-21T10:06:55.505Z,1021.55
2017-04-21T10:08:00.691Z,1021.48
2017-04-21T10:09:04.850Z,1021.4
2017-04-21T10:10:06.118Z,1021.4
2017-04-21T10:11:07.396Z,1021.35
2017-04-21T10:12:08.745Z,1021.3
2017-04-21T10:13:10.016Z,1021.24
2017-04-21T10:14:11.267Z,1021.32
2017-04-21T10:15:12.583Z,1021.32
2017-04-21T10:16:13.990Z,1021.3
2017-04-21T10:17:15.281Z,1021.29
2017-04-21T10:18:16.605Z,1021.24
2017-04-21T10:19:17.844Z,1021.25
2017-04-21T10:20:19.149Z,1021.24
2017-04-21T10:21:20.500Z,1021.22
2017-04-21T10:22:21.741Z,1021.26
2017-04-21T10:23:22.985Z,1021.26
2017-04-21T10:24:24.273Z,1021.21
2017-04-21T10:25:25.519Z,1021.23
2017-04-21T10:26:26.779Z,1021.21
2017-04-21T10:27:28.036Z,1021.22
2017-04-21T10:28:29.288Z,1021.16
2017-04-21T10:29:30.515Z,1021.14
2017-04-21T10:30:31.757Z,1021.16
2017-04-21T10:31:33.216Z,1021.21
2017-04-21T10:32:34.461Z,1021.13
2017-04-21T10:33:35.723Z,1021.15
2017-04-21T10:34:36.997Z,1021.12
2017-04-21T10:35:38.297Z,1021.17
2017-04-21T10:36:39.535Z,1021.13
2017-04-21T10:37:40.770Z,1021.11
2017-04-21T10:38:42.044Z,1021.06
2017-04-21T10:39:43.290Z,1021.1
2017-04-21T10:40:44.635Z,1021.04
2017-04-21T10:41:45.865Z,1021.01
2017-04-21T10:42:47.106Z,1020.95
2017-04-21T10:43:48.346Z,1020.94
2017-04-21T10:44:49.661Z,1020.95
2017-04-21T10:45:50.931Z,1020.92
2017-04-21T10:46:52.320Z,1020.9
2017-04-21T10:47:53.554Z,1020.87
2017-04-21T10:48:54.803Z,1020.85
2017-04-21T10:49:56.052Z,1020.81
2017-04-21T10:50:57.353Z,1020.87
2017-04-21T10:51:58.587Z,1020.94
2017-04-21T10:52:59.861Z,1020.92
2017-04-21T10:54:01.225Z,1020.94
2017-04-21T10:55:02.443Z,1020.87
2017-04-21T10:56:03.699Z,1020.84
2017-04-21T10:57:04.984Z,1020.82
2017-04-21T10:58:06.322Z,1020.8
2017-04-21T10:59:07.546Z,1020.84
2017-04-21T11:00:09.000Z,1020.79
2017-04-21T11:01:10.251Z,1020.77
2017-04-21T11:02:11.501Z,1020.74
2017-04-21T11:03:12.748Z,1020.73
2017-04-21T11:04:14.009Z,1020.73
2017-04-21T11:05:15.367Z,1020.77
2017-04-21T11:06:16.649Z,1020.73
2017-04-21T11:07:17.898Z,1020.75
2017-04-21T11:08:19.238Z,1020.73
2017-04-21T11:09:20.554Z,1020.72
2017-04-21T11:10:21.683Z,1020.74
2017-04-21T11:11:22.976Z,1020.67
2017-04-21T11:12:24.449Z,1020.7
2017-04-21T11:13:25.721Z,1020.68
2017-04-21T11:14:26.969Z,1020.66
2017-04-21T11:15:28.315Z,1020.6
2017-04-21T11:16:29.541Z,1020.54
2017-04-21T11:17:30.780Z,1020.6
2017-04-21T11:18:32.017Z,1020.6
2017-04-21T11:19:33.386Z,1020.49
2017-04-21T11:20:34.687Z,1020.48
2017-04-21T11:21:35.920Z,1020.46
2017-04-21T11:22:37.159Z,1020.5
2017-04-21T11:23:38.540Z,1020.44
2017-04-21T11:24:39.798Z,1020.48
2017-04-21T11:25:41.049Z,1020.39
2017-04-21T11:26:42.305Z,1020.46
2017-04-21T11:27:43.592Z,1020.39
2017-04-21T11:28:44.895Z,1020.39
2017-04-21T11:29:46.131Z,1020.41
2017-04-21T11:30:47.388Z,1020.37
2017-04-21T11:31:48.838Z,1020.39
2017-04-21T11:32:50.090Z,1020.42
2017-04-21T11:33:51.355Z,1020.34
2017-04-21T11:34:52.610Z,1020.37
2017-04-21T11:35:53.861Z,1020.41
2017-04-21T11:36:55.113Z,1020.29
2017-04-21T11:37:56.352Z,1020.33
2017-04-21T11:38:57.616Z,1020.28
2017-04-21T11:39:58.933Z,1020.32
2017-04-21T11:41:00.382Z,1020.32
2017-04-21T11:42:01.615Z,1020.28
2017-04-21T11:43:02.860Z,1020.26
2017-04-21T11:44:04.265Z,1020.25
2017-04-21T11:45:05.588Z,1020.21
2017-04-21T11:46:06.839Z,1020.19
2017-04-21T11:47:08.080Z,1020.17
2017-04-21T11:48:09.382Z,1020.17
2017-04-21T11:49:10.634Z,1020.24
2017-04-21T11:50:11.889Z,1020.2
2017-04-21T11:51:13.329Z,1020.15
2017-04-21T11:52:14.682Z,1020.25
2017-04-21T11:53:15.922Z,1020.25
2017-04-21T11:54:17.168Z,1020.28
2017-04-21T11:55:18.400Z,1020.26
2017-04-21T11:56:19.672Z,1020.25
2017-04-21T11:57:21.057Z,1020.17
2017-04-21T11:58:22.492Z,1020.16
2017-04-21T11:59:23.758Z,1020.09
2017-04-21T12:00:24.982Z,1020.21
2017-04-21T12:01:26.224Z,1020.23
2017-04-21T12:02:27.580Z,1020.16
2017-04-21T12:03:28.822Z,1020.18
2017-04-21T12:04:30.074Z,1020.17
2017-04-21T12:05:31.349Z,1020.17
2017-04-21T12:06:32.605Z,1020.13
2017-04-21T12:07:33.879Z,1020.16
2017-04-21T12:08:35.201Z,1020.08
2017-04-21T12:09:36.424Z,1020.11
2017-04-21T12:10:37.667Z,1020.12
2017-04-21T12:11:38.940Z,1020.11
2017-04-21T12:12:40.189Z,1020.07
2017-04-21T12:13:41.442Z,1020.15
2017-04-21T12:14:42.805Z,1020.02
2017-04-21T12:15:44.080Z,1020.03
2017-04-21T12:16:45.339Z,1020.08
2017-04-21T12:17:46.580Z,1020.01
2017-04-21T12:18:47.861Z,1020.02
2017-04-21T12:19:49.515Z,1019.98
2017-04-21T12:20:50.751Z,1020.02
2017-04-21T12:21:52.008Z,1020.02
2017-04-21T12:22:53.293Z,1019.97
2017-04-21T12:23:54.525Z,1019.93
2017-04-21T12:24:55.771Z,1019.95
2017-04-21T12:25:57.064Z,1019.98